createdAt,value
2023-10-11T07:34:42.029Z,3.65
2023-10-11T07:37:13.210Z,3.10
2023-10-11T07:39:42.702Z,2.95
2023-10-11T07:42:10.783Z,2.58
2023-10-11T07:44:39.332Z,3.15
2023-10-11T07:47:16.965Z,2.55
2023-10-11T07:49:45.132Z,3.40
2023-10-11T07:52:15.568Z,3.70
2023-10-11T07:54:42.949Z,3.63
2023-10-11T07:57:17.167Z,2.95
2023-10-11T07:59:45.742Z,3.03
2023-10-11T08:02:28.583Z,3.10
2023-10-11T08:04:58.632Z,3.30
2023-10-11T08:07:26.031Z,3.28
2023-10-11T08:10:00.081Z,3.17
2023-10-11T08:12:28.623Z,3.20
2023-10-11T08:14:58.971Z,3.10
2023-10-11T08:17:32.488Z,2.85
2023-10-11T08:20:01.938Z,3.22
2023-10-11T08:22:29.758Z,3.10
2023-10-11T08:25:00.788Z,3.55
2023-10-11T09:06:42.556Z,3.58
2023-10-11T09:09:16.171Z,3.80
2023-10-11T09:11:56.031Z,2.92
2023-10-11T09:14:29.184Z,3.20
2023-10-11T09:17:04.317Z,3.40
2023-10-11T09:19:34.208Z,3.78
2023-10-11T09:22:04.324Z,3.17
2023-10-11T09:24:44.860Z,3.83
2023-10-11T09:27:18.902Z,3.55
2023-10-11T09:29:48.482Z,2.60
2023-10-11T09:32:21.004Z,2.50
2023-10-11T09:34:48.944Z,2.80
2023-10-11T09:37:16.229Z,3.33
2023-10-11T09:39:46.496Z,3.08
2023-10-11T09:42:23.840Z,2.25
2023-10-11T09:44:59.460Z,2.58
2023-10-11T09:47:33.218Z,2.80
2023-10-11T09:50:02.539Z,2.03
2023-10-11T09:52:34.219Z,2.10
2023-10-11T09:55:09.882Z,2.60
2023-10-11T09:57:52.038Z,2.05
2023-10-11T10:00:45.288Z,1.90
2023-10-11T10:03:16.620Z,2.80
2023-10-11T10:06:06.666Z,1.58
2023-10-11T10:08:34.752Z,2.17
2023-10-11T10:11:03.760Z,2.88
2023-10-11T10:14:25.996Z,1.73
2023-10-11T10:17:17.216Z,2.30
2023-10-11T10:19:45.757Z,1.98
2023-10-11T10:22:16.534Z,1.88
2023-10-11T10:24:48.214Z,2.22
2023-10-11T10:27:24.826Z,2.33
2023-10-11T10:30:06.200Z,2.10
2023-10-11T10:32:34.182Z,2.00
2023-10-11T10:35:19.992Z,2.13
2023-10-11T10:37:47.492Z,2.03
2023-10-11T10:40:28.496Z,1.63
2023-10-11T10:43:08.226Z,1.73
2023-10-11T10:45:35.656Z,2.22
2023-10-11T10:48:15.655Z,1.77
2023-10-11T10:51:03.141Z,1.60
2023-10-11T10:53:40.900Z,1.70
2023-10-11T10:56:27.172Z,1.23
2023-10-11T10:59:13.207Z,1.95
2023-10-11T11:01:41.607Z,2.05
2023-10-11T11:04:12.743Z,1.30
2023-10-11T11:06:48.797Z,2.03
2023-10-11T11:09:21.279Z,1.50
2023-10-11T11:11:50.478Z,0.70
2023-10-11T11:14:25.225Z,1.55
2023-10-11T11:16:59.999Z,2.38
2023-10-11T11:19:28.278Z,1.63
2023-10-11T11:22:17.011Z,1.90
2023-10-11T11:24:44.946Z,1.42
2023-10-11T11:27:27.379Z,1.33
2023-10-11T11:29:56.401Z,1.73
2023-10-11T11:32:43.487Z,1.38
2023-10-11T11:35:12.034Z,1.50
2023-10-11T11:38:02.941Z,1.52
2023-10-11T11:40:38.041Z,1.83
2023-10-11T11:43:06.006Z,1.95
2023-10-11T11:45:39.951Z,2.10
2023-10-11T11:48:07.626Z,1.38
2023-10-11T11:50:35.477Z,1.60
2023-10-11T11:53:05.222Z,2.03
2023-10-11T11:55:36.428Z,1.70
2023-10-11T11:58:14.884Z,1.35
2023-10-11T12:00:47.756Z,2.50
2023-10-11T12:03:15.355Z,1.73
2023-10-11T12:05:42.705Z,1.48
2023-10-11T12:08:20.302Z,1.40
2023-10-11T12:10:53.729Z,1.00
2023-10-11T12:13:25.079Z,2.00
2023-10-11T12:15:57.553Z,1.70
2023-10-11T12:18:33.876Z,1.75
2023-10-11T12:21:05.024Z,1.80
2023-10-11T12:23:32.760Z,2.00
2023-10-11T12:26:05.513Z,1.70
2023-10-11T12:28:39.047Z,1.92
2023-10-11T12:31:06.499Z,1.40
2023-10-11T12:33:34.678Z,1.70
2023-10-11T12:36:07.505Z,2.00
2023-10-11T12:38:37.749Z,2.10
2023-10-11T12:41:05.914Z,1.42
2023-10-11T12:43:34.325Z,1.65
2023-10-11T12:46:01.832Z,1.48
2023-10-11T12:48:29.709Z,1.38
2023-10-11T12:50:59.446Z,1.85
2023-10-11T12:53:30.721Z,1.73
2023-10-11T12:55:58.265Z,1.80
2023-10-11T12:58:29.289Z,1.60
2023-10-11T13:01:07.157Z,1.80
2023-10-11T13:03:40.835Z,1.42
2023-10-11T13:06:11.975Z,1.15
2023-10-11T13:08:39.601Z,1.23
2023-10-11T13:11:19.941Z,1.60
2023-10-11T13:13:48.330Z,1.10
2023-10-11T13:16:28.572Z,1.20
2023-10-11T13:19:00.559Z,1.63
2023-10-11T13:21:35.351Z,1.50
2023-10-11T13:24:12.473Z,1.42
2023-10-11T13:26:44.204Z,1.48
2023-10-11T13:29:18.416Z,1.05
2023-10-11T13:31:53.354Z,1.85
2023-10-11T13:34:25.562Z,1.08
2023-10-11T13:36:53.639Z,1.30
2023-10-11T13:39:27.274Z,1.58
2023-10-11T13:42:05.880Z,1.30
2023-10-11T13:44:38.785Z,1.63
2023-10-11T13:47:06.903Z,1.55
2023-10-11T13:49:35.498Z,1.35
2023-10-11T13:52:09.084Z,1.20
2023-10-11T13:54:43.225Z,1.80
2023-10-11T13:57:13.123Z,1.42
2023-10-11T13:59:48.086Z,1.38
2023-10-11T14:02:34.506Z,1.58
2023-10-11T14:05:03.814Z,1.80
2023-10-11T14:07:50.324Z,1.67
2023-10-11T14:10:28.742Z,1.52
2023-10-11T14:13:09.964Z,1.73
2023-10-11T14:15:39.467Z,1.80
2023-10-11T14:18:15.961Z,1.92
2023-10-11T14:20:50.787Z,1.83
2023-10-11T14:23:18.146Z,1.70
2023-10-11T14:25:45.713Z,1.67
2023-10-11T14:28:16.404Z,1.33
2023-10-11T14:30:46.818Z,1.38
2023-10-11T14:33:14.272Z,1.13
2023-10-11T14:35:41.927Z,1.50
2023-10-11T14:38:12.485Z,1.33
2023-10-11T14:40:44.264Z,1.80
2023-10-11T14:43:16.113Z,1.48
2023-10-11T14:45:46.254Z,1.90
2023-10-11T14:48:13.714Z,1.50
2023-10-11T14:50:44.931Z,1.50
2023-10-11T14:53:15.402Z,1.63
2023-10-11T14:55:45.802Z,1.90
2023-10-11T14:58:15.184Z,1.60
2023-10-11T15:00:47.768Z,1.52
2023-10-11T15:03:15.364Z,2.17
2023-10-11T15:05:42.754Z,1.58
2023-10-11T15:08:11.229Z,1.80
2023-10-11T15:10:39.117Z,1.55
2023-10-11T15:13:06.934Z,1.42
2023-10-11T15:15:34.336Z,1.98
2023-10-11T15:18:05.191Z,2.08
2023-10-11T15:20:33.435Z,1.80
2023-10-11T15:23:03.547Z,1.58
2023-10-11T15:25:33.013Z,1.92
2023-10-11T15:28:01.481Z,1.88
2023-10-11T15:30:29.170Z,1.85
2023-10-11T15:32:56.566Z,1.67
2023-10-11T15:35:23.964Z,1.85
2023-10-11T15:37:51.314Z,1.05
2023-10-11T15:40:22.009Z,1.85
2023-10-11T15:42:49.892Z,1.38
2023-10-11T15:45:17.242Z,1.63
2023-10-11T15:47:48.390Z,1.95
2023-10-11T15:50:17.203Z,1.67
2023-10-11T15:52:44.696Z,1.70
2023-10-11T15:55:12.829Z,1.60
2023-10-11T15:57:40.500Z,1.80
2023-10-11T16:00:14.299Z,2.13
2023-10-11T16:02:46.272Z,1.90
2023-10-11T16:05:17.306Z,2.00
2023-10-11T16:07:45.691Z,2.03
2023-10-11T16:10:13.301Z,1.58
2023-10-11T16:12:45.357Z,1.75
2023-10-11T16:15:15.638Z,1.97
2023-10-11T16:17:44.978Z,1.48
2023-10-11T16:20:13.422Z,1.65
2023-10-11T16:22:42.101Z,1.73
2023-10-11T16:25:11.075Z,1.58
2023-10-11T16:27:40.824Z,1.58
2023-10-11T16:30:10.634Z,2.15
2023-10-11T16:32:38.766Z,1.77
2023-10-11T16:35:15.361Z,1.02
2023-10-11T16:37:43.240Z,1.60
2023-10-11T16:40:17.380Z,1.73
2023-10-11T16:42:45.900Z,1.80
2023-10-11T16:45:15.441Z,1.40
2023-10-11T16:47:44.954Z,1.92
2023-10-11T16:50:20.830Z,1.40
2023-10-11T16:52:48.564Z,1.63
2023-10-11T16:55:15.932Z,1.67
2023-10-11T16:57:43.706Z,1.60
2023-10-11T17:00:17.108Z,2.10
2023-10-11T17:02:47.458Z,1.65
2023-10-11T17:05:19.884Z,1.27
2023-10-11T17:07:47.255Z,1.48
2023-10-11T17:10:19.112Z,1.15
2023-10-11T17:12:47.586Z,1.65
2023-10-11T17:15:15.878Z,1.42
2023-10-11T17:17:44.407Z,1.80
2023-10-11T17:20:16.073Z,1.50
2023-10-11T17:22:47.714Z,1.60
2023-10-11T17:25:25.625Z,1.90
2023-10-11T17:27:54.619Z,1.50
2023-10-11T17:30:33.601Z,2.03
2023-10-11T17:33:03.682Z,1.40
2023-10-11T17:35:39.794Z,1.83
2023-10-11T17:38:08.891Z,1.70
2023-10-11T17:40:41.428Z,1.33
2023-10-11T17:43:08.831Z,1.60
2023-10-11T17:45:37.705Z,1.38
2023-10-11T17:48:07.926Z,1.17
2023-10-11T17:50:36.518Z,1.60
2023-10-11T17:53:06.249Z,1.65
2023-10-11T17:55:39.595Z,1.65
2023-10-11T17:58:07.867Z,1.60
2023-10-11T18:00:39.367Z,1.75
2023-10-11T18:03:09.818Z,1.60
2023-10-11T18:05:40.274Z,2.40
2023-10-11T18:08:07.776Z,1.58
2023-10-11T18:10:35.456Z,1.30
2023-10-11T18:13:03.283Z,1.77
2023-10-11T18:15:34.896Z,1.10
2023-10-11T18:18:06.507Z,1.58
2023-10-11T18:20:38.449Z,1.10
2023-10-11T18:23:10.212Z,1.85
2023-10-11T18:25:38.860Z,1.48
2023-10-11T18:28:09.370Z,1.55
2023-10-11T18:30:36.981Z,1.08
2023-10-11T18:33:05.047Z,1.48
2023-10-11T18:35:33.418Z,2.10
2023-10-11T18:38:00.690Z,1.40
2023-10-11T18:40:28.326Z,1.35
2023-10-11T18:42:56.328Z,0.93
